Time;durP1;ratioP1;P1;durP2;ratioP2;P2;SDS_P1;SDS_P2;PMS_P1;PMS_P2;Temp;Humidity;BMP_temperature;BMP_pressure;BME280_temperature;BME280_humidity;BME280_pressure;Samples;Min_cycle;Max_cycle;Signal;HPM_P1;HPM_P2
2021/03/24 00:02:03;;;;;;;33.28;15.18;;;6.60;99.90;;;;;;6181651;23;19916;-82
2021/03/24 00:04:31;;;;;;;32.67;14.85;;;6.60;99.90;;;;;;6182401;23;20025;-83
2021/03/24 00:06:59;;;;;;;35.83;16.48;;;6.60;99.90;;;;;;6183855;23;20061;-83
2021/03/24 00:09:27;;;;;;;37.70;15.63;;;6.60;99.90;;;;;;6159064;23;20069;-83
2021/03/24 01:27:57;;;;;;;40.22;15.10;;;6.50;99.90;;;;;;5800493;23;21268;-80
2021/03/24 01:30:28;;;;;;;37.83;15.70;;;6.50;99.90;;;;;;6148419;23;20030;-83
2021/03/24 01:32:59;;;;;;;35.72;16.75;;;6.40;99.90;;;;;;6199652;23;20109;-83
2021/03/24 01:35:29;;;;;;;40.40;15.90;;;6.40;99.90;;;;;;6140613;23;20076;-82
2021/03/24 01:38:00;;;;;;;40.80;15.38;;;6.50;99.90;;;;;;6189255;23;20064;-80
2021/03/24 01:40:33;;;;;;;37.03;16.02;;;6.40;99.90;;;;;;6182997;23;20061;-83
2021/03/24 01:43:05;;;;;;;42.92;16.40;;;6.40;99.90;;;;;;6156342;23;20065;-83
2021/03/24 01:46:21;;;;;;;40.47;16.60;;;6.30;99.90;;;;;;6155334;23;20022;-83
2021/03/24 01:48:52;;;;;;;41.55;16.50;;;6.30;99.90;;;;;;6132712;23;20041;-83
2021/03/24 01:51:21;;;;;;;36.20;17.05;;;6.30;99.90;;;;;;6133501;23;20028;-83
2021/03/24 01:53:50;;;;;;;40.33;16.00;;;6.30;99.90;;;;;;6157548;23;20073;-83
2021/03/24 01:56:26;;;;;;;36.70;15.77;;;6.30;99.90;;;;;;6157308;23;20069;-82
2021/03/24 01:58:57;;;;;;;39.75;15.73;;;6.30;99.90;;;;;;6154829;23;20012;-83
2021/03/24 02:01:25;;;;;;;37.30;17.25;;;6.30;99.90;;;;;;6179832;23;20028;-83
2021/03/24 02:03:53;;;;;;;40.47;18.42;;;6.30;99.90;;;;;;6154697;23;20013;-83
2021/03/24 02:06:24;;;;;;;42.20;18.20;;;6.30;99.90;;;;;;6156966;23;20064;-82
2021/03/24 02:09:02;;;;;;;38.42;16.02;;;6.20;99.90;;;;;;6132858;23;20065;-83
2021/03/24 02:11:34;;;;;;;39.83;16.63;;;6.30;99.90;;;;;;6179436;23;20025;-83
2021/03/24 02:14:09;;;;;;;36.95;14.85;;;6.20;99.90;;;;;;6154783;23;20094;-83
2021/03/24 02:16:41;;;;;;;37.38;16.65;;;6.20;99.90;;;;;;6178537;23;20025;-82
2021/03/24 02:19:21;;;;;;;32.58;12.27;;;6.20;99.90;;;;;;6154067;23;20021;-82
2021/03/24 02:21:49;;;;;;;39.65;16.52;;;6.20;99.90;;;;;;6153496;23;20009;-83
2021/03/24 02:24:41;;;;;;;41.70;18.30;;;6.10;99.90;;;;;;6152586;23;20021;-83
2021/03/24 02:27:12;;;;;;;40.53;16.10;;;6.20;99.90;;;;;;6156757;23;20065;-82
2021/03/24 02:29:44;;;;;;;33.90;15.55;;;6.20;99.90;;;;;;6157246;23;20077;-82
2021/03/24 02:32:15;;;;;;;47.22;19.58;;;6.20;99.90;;;;;;6155369;23;20032;-83
2021/03/24 02:34:44;;;;;;;46.45;18.63;;;6.20;99.90;;;;;;6182655;23;20065;-83
2021/03/24 02:37:13;;;;;;;33.80;15.75;;;6.10;99.90;;;;;;6176424;23;20070;-82
2021/03/24 02:39:44;;;;;;;41.92;17.90;;;6.10;99.90;;;;;;6143943;23;20026;-82
2021/03/24 02:42:14;;;;;;;34.45;12.30;;;6.10;99.90;;;;;;6144730;23;20022;-83
2021/03/24 02:44:46;;;;;;;38.33;16.08;;;6.10;99.90;;;;;;6118561;23;20017;-82
2021/03/24 02:47:15;;;;;;;42.75;16.27;;;6.10;99.90;;;;;;6142801;23;20026;-83
2021/03/24 02:49:43;;;;;;;;;;;6.00;99.90;;;;;;6119947;23;20022;-82
2021/03/24 02:52:12;;;;;;;38.97;16.03;;;6.10;99.90;;;;;;6119411;23;19923;-83
2021/03/24 02:54:40;;;;;;;40.72;16.13;;;6.00;99.90;;;;;;6118469;23;20036;-82
2021/03/24 02:57:08;;;;;;;39.03;17.38;;;6.00;99.90;;;;;;6150411;23;20022;-82
2021/03/24 02:59:37;;;;;;;45.58;16.23;;;6.00;99.90;;;;;;6148751;23;20026;-83
2021/03/24 03:02:11;;;;;;;45.97;19.10;;;5.90;99.90;;;;;;6119943;23;20030;-83
2021/03/24 03:04:51;;;;;;;40.95;17.08;;;6.00;99.90;;;;;;6148954;23;20016;-84
2021/03/24 03:07:24;;;;;;;41.67;15.60;;;6.00;99.90;;;;;;6153289;23;20057;-85
2021/03/24 03:09:56;;;;;;;45.13;18.65;;;6.00;99.90;;;;;;6152760;23;20077;-84
2021/03/24 03:12:35;;;;;;;41.67;17.17;;;6.00;99.90;;;;;;6152822;23;20073;-84
2021/03/24 03:15:08;;;;;;;44.20;18.00;;;6.00;99.90;;;;;;6154360;23;20058;-84
2021/03/24 03:17:41;;;;;;;43.20;17.63;;;5.90;99.90;;;;;;6156717;23;20058;-84
2021/03/24 03:20:14;;;;;;;42.75;18.48;;;6.10;99.90;;;;;;6155788;23;20046;-84
2021/03/24 03:22:54;;;;;;;35.88;13.73;;;6.00;99.90;;;;;;6151022;23;20021;-84
2021/03/24 03:25:26;;;;;;;39.42;16.75;;;6.00;99.90;;;;;;6150536;23;20024;-83
2021/03/24 03:27:56;;;;;;;42.97;17.25;;;5.90;99.90;;;;;;6149327;23;20004;-84
2021/03/24 03:30:30;;;;;;;45.85;17.85;;;5.90;99.90;;;;;;6151189;23;20032;-84
2021/03/24 03:33:02;;;;;;;54.10;19.40;;;5.90;99.90;;;;;;6151024;23;20022;-83
2021/03/24 03:35:32;;;;;;;44.20;19.35;;;5.90;99.90;;;;;;6151546;23;20018;-83
2021/03/24 03:38:02;;;;;;;45.70;18.10;;;5.90;99.90;;;;;;6127361;23;20070;-82
2021/03/24 03:40:34;;;;;;;40.70;18.00;;;5.90;99.90;;;;;;6152942;23;20025;-83
2021/03/24 03:43:04;;;;;;;45.17;19.65;;;6.00;99.90;;;;;;6129105;23;20053;-83
2021/03/24 03:45:36;;;;;;;45.13;18.15;;;6.00;99.90;;;;;;6151772;23;20028;-83
2021/03/24 03:48:05;;;;;;;36.97;17.73;;;5.90;99.90;;;;;;6123089;23;20022;-82
2021/03/24 03:50:36;;;;;;;43.97;17.88;;;5.90;99.90;;;;;;6122268;23;20022;-83
2021/03/24 03:53:12;;;;;;;49.60;18.65;;;6.00;99.90;;;;;;6146176;23;20021;-82
2021/03/24 03:55:49;;;;;;;42.33;19.67;;;5.90;99.90;;;;;;6122071;23;20021;-82
2021/03/24 03:58:31;;;;;;;45.83;19.45;;;5.90;99.90;;;;;;6124804;23;20018;-82
2021/03/24 04:01:11;;;;;;;49.88;17.73;;;5.90;99.90;;;;;;6146809;23;20025;-83
2021/03/24 04:03:45;;;;;;;36.92;17.08;;;5.90;99.90;;;;;;6145956;23;20022;-83
2021/03/24 04:06:18;;;;;;;38.22;16.20;;;5.80;99.90;;;;;;6142687;23;20022;-83
2021/03/24 04:08:49;;;;;;;43.42;19.15;;;5.80;99.90;;;;;;6126554;23;20026;-84
2021/03/24 04:11:23;;;;;;;39.08;17.08;;;5.90;99.90;;;;;;6153966;23;20069;-82
2021/03/24 04:13:57;;;;;;;48.10;18.48;;;5.90;99.90;;;;;;6179189;23;20073;-84
2021/03/24 04:16:27;;;;;;;38.97;14.77;;;5.90;99.90;;;;;;6129272;23;20073;-84
2021/03/24 04:19:00;;;;;;;41.33;18.95;;;5.80;99.90;;;;;;6154081;23;20069;-83
2021/03/24 04:21:30;;;;;;;48.10;19.73;;;5.80;99.90;;;;;;6130266;23;20101;-83
2021/03/24 04:24:02;;;;;;;43.67;17.98;;;5.80;99.90;;;;;;6153785;23;20058;-84
2021/03/24 04:26:36;;;;;;;36.90;15.73;;;5.80;99.90;;;;;;6127607;23;20013;-84
2021/03/24 04:29:08;;;;;;;44.85;18.00;;;5.80;99.90;;;;;;6150966;23;20028;-83
2021/03/24 04:31:44;;;;;;;46.65;17.90;;;5.80;99.90;;;;;;6151810;23;20028;-83
2021/03/24 04:34:12;;;;;;;44.55;19.50;;;5.80;99.90;;;;;;6152559;23;20006;-84
2021/03/24 04:36:44;;;;;;;42.05;18.08;;;5.70;99.90;;;;;;6154916;23;20074;-85
2021/03/24 04:39:17;;;;;;;51.55;19.63;;;5.80;99.90;;;;;;6153405;23;20062;-82
2021/03/24 04:41:47;;;;;;;44.17;19.75;;;5.80;99.90;;;;;;6125411;23;20006;-83
2021/03/24 04:44:20;;;;;;;44.10;19.33;;;5.80;99.90;;;;;;6149737;23;20032;-82
2021/03/24 04:46:55;;;;;;;45.15;18.80;;;5.80;99.90;;;;;;6173940;23;20070;-82
2021/03/24 04:49:26;;;;;;;45.05;19.80;;;5.80;99.90;;;;;;6151609;23;20050;-83
2021/03/24 04:51:56;;;;;;;50.63;19.00;;;5.80;99.90;;;;;;6126157;23;20036;-83
2021/03/24 04:54:31;;;;;;;44.65;19.05;;;5.90;99.90;;;;;;6147712;23;20005;-83
2021/03/24 04:57:03;;;;;;;47.53;18.27;;;5.80;99.90;;;;;;6121339;23;20033;-83
2021/03/24 04:59:36;;;;;;;51.45;20.42;;;5.80;99.90;;;;;;6121142;23;20026;-83
2021/03/24 05:02:10;;;;;;;43.83;18.65;;;5.80;99.90;;;;;;6123265;23;20032;-82
2021/03/24 05:04:43;;;;;;;48.58;20.58;;;5.80;99.90;;;;;;6147528;23;20012;-82
2021/03/24 05:07:19;;;;;;;45.13;17.73;;;5.70;99.90;;;;;;6122340;23;20036;-82
2021/03/24 05:09:47;;;;;;;42.80;18.40;;;5.80;99.90;;;;;;6146246;23;20026;-83
2021/03/24 05:12:19;;;;;;;46.10;19.20;;;5.70;99.90;;;;;;6122651;23;20028;-83
2021/03/24 05:14:56;;;;;;;48.80;18.65;;;5.70;99.90;;;;;;6148935;23;20028;-83
2021/03/24 05:17:28;;;;;;;47.67;18.45;;;5.80;99.90;;;;;;6123331;23;20022;-83
2021/03/24 05:20:00;;;;;;;44.63;19.27;;;5.70;99.90;;;;;;6147309;23;20029;-83
2021/03/24 05:22:31;;;;;;;52.35;18.88;;;5.70;99.90;;;;;;6147457;23;20020;-83
2021/03/24 05:25:05;;;;;;;48.17;20.88;;;5.70;99.90;;;;;;6144176;23;20070;-83
2021/03/24 05:27:41;;;;;;;43.15;18.08;;;5.80;99.90;;;;;;6140482;23;20025;-81
2021/03/24 05:30:21;;;;;;;48.25;19.08;;;5.80;99.90;;;;;;6143221;23;20018;-81
2021/03/24 05:32:56;;;;;;;50.15;19.88;;;5.70;99.90;;;;;;6145864;23;20181;-83
2021/03/24 05:35:33;;;;;;;45.92;19.20;;;5.70;99.90;;;;;;6147035;23;20024;-83
2021/03/24 05:38:07;;;;;;;51.90;20.80;;;5.70;99.90;;;;;;6146676;23;20009;-82
2021/03/24 05:40:48;;;;;;;43.42;18.67;;;5.70;99.90;;;;;;6145929;23;20032;-83
2021/03/24 05:43:33;;;;;;;47.53;18.15;;;5.70;99.90;;;;;;6146467;23;20025;-82
2021/03/24 05:46:15;;;;;;;46.08;20.73;;;5.90;99.90;;;;;;6143593;23;20032;-82
2021/03/24 05:49:03;;;;;;;42.53;18.00;;;5.80;99.90;;;;;;6120193;23;20018;-82
2021/03/24 05:51:45;;;;;;;53.97;19.85;;;5.80;99.90;;;;;;6121334;23;20028;-82
2021/03/24 05:54:52;;;;;;;56.28;19.05;;;5.80;99.90;;;;;;6120458;23;20070;-81
2021/03/24 05:57:28;;;;;;;46.25;19.48;;;5.80;99.90;;;;;;6094392;23;20036;-82
2021/03/24 06:00:07;;;;;;;46.55;20.08;;;5.90;99.90;;;;;;6143301;23;20022;-83
2021/03/24 06:02:47;;;;;;;46.63;19.73;;;5.90;99.90;;;;;;6143843;23;20558;-82
2021/03/24 06:05:22;;;;;;;45.25;19.85;;;5.90;99.90;;;;;;6143604;23;20024;-81
2021/03/24 06:08:26;;;;;;;51.20;21.88;;;6.00;99.90;;;;;;6119877;23;20022;-82
2021/03/24 06:11:18;;;;;;;42.40;17.65;;;5.90;99.90;;;;;;6143879;23;20341;-82
2021/03/24 06:14:14;;;;;;;44.60;18.70;;;5.80;99.90;;;;;;6117608;23;20017;-82
2021/03/24 06:17:21;;;;;;;47.42;19.38;;;5.80;99.90;;;;;;6121125;23;20017;-82
2021/03/24 06:20:02;;;;;;;48.53;20.30;;;5.80;99.90;;;;;;6143750;23;20022;-81
2021/03/24 06:22:47;;;;;;;47.58;21.33;;;5.80;99.90;;;;;;6145668;23;20026;-81
2021/03/24 06:25:33;;;;;;;48.10;18.92;;;5.80;99.90;;;;;;6121737;23;20022;-82
2021/03/24 06:28:17;;;;;;;45.45;21.00;;;5.90;99.90;;;;;;6145638;23;20325;-82
2021/03/24 06:31:10;;;;;;;46.55;19.05;;;5.90;99.90;;;;;;6146688;23;20017;-82
2021/03/24 06:34:08;;;;;;;49.20;19.35;;;6.00;99.90;;;;;;6147589;23;20022;-83
2021/03/24 06:37:08;;;;;;;49.75;20.70;;;6.00;99.90;;;;;;6088302;23;20026;-82
2021/03/24 06:40:03;;;;;;;53.13;20.63;;;6.00;99.90;;;;;;6148997;23;20081;-83
2021/03/24 06:42:40;;;;;;;46.22;17.63;;;6.00;99.90;;;;;;6125045;23;20033;-82
2021/03/24 06:45:36;;;;;;;48.80;20.73;;;6.10;99.90;;;;;;6147247;23;20025;-83
2021/03/24 06:48:24;;;;;;;37.60;15.68;;;6.00;99.90;;;;;;6146125;23;20006;-81
2021/03/24 06:51:47;;;;;;;43.60;18.88;;;6.00;99.90;;;;;;6149990;23;20022;-83
2021/03/24 06:54:54;;;;;;;46.97;18.45;;;6.10;99.90;;;;;;6151250;23;20014;-83
2021/03/24 06:57:57;;;;;;;43.53;19.30;;;6.30;99.90;;;;;;6151536;23;20008;-84
2021/03/24 07:00:45;;;;;;;47.72;19.30;;;6.30;99.90;;;;;;6152175;23;20057;-84
2021/03/24 07:04:11;;;;;;;50.88;20.70;;;6.30;99.90;;;;;;6150541;23;20026;-83
2021/03/24 07:07:00;;;;;;;42.45;19.00;;;6.40;99.90;;;;;;6150567;23;20014;-82
2021/03/24 07:09:38;;;;;;;45.40;21.20;;;6.50;99.90;;;;;;6151738;23;20078;-83
2021/03/24 07:12:23;;;;;;;45.53;20.38;;;6.60;99.90;;;;;;6151400;23;20058;-83
2021/03/24 07:15:20;;;;;;;51.53;20.80;;;6.80;99.90;;;;;;6163681;23;20010;-84
2021/03/24 07:18:15;;;;;;;47.17;21.13;;;6.80;99.90;;;;;;6171472;23;20010;-81
2021/03/24 07:21:07;;;;;;;61.25;22.80;;;6.80;99.90;;;;;;6162283;23;20008;-84
2021/03/24 07:24:10;;;;;;;47.92;20.02;;;6.80;99.90;;;;;;6161193;23;20009;-84
2021/03/24 07:27:10;;;;;;;49.03;20.50;;;7.00;99.90;;;;;;6156750;23;20019;-83
2021/03/24 07:29:57;;;;;;;45.10;20.23;;;7.10;99.90;;;;;;6178056;23;20085;-82
2021/03/24 07:32:38;;;;;;;42.97;19.65;;;7.10;99.90;;;;;;6179717;23;20021;-82
2021/03/24 07:35:37;;;;;;;40.05;15.80;;;7.00;99.90;;;;;;6212866;23;20052;-84
2021/03/24 07:39:17;;;;;;;40.03;19.08;;;6.90;99.90;;;;;;6210861;23;20097;-83
2021/03/24 07:49:53;;;;;;;44.33;18.58;;;7.30;99.90;;;;;;6111217;23;20069;-83
2021/03/24 08:01:38;;;;;;;46.05;19.15;;;7.80;99.90;;;;;;6178536;23;20025;-85
2021/03/24 08:04:49;;;;;;;53.00;22.25;;;7.90;99.90;;;;;;6159501;23;20065;-83
2021/03/24 08:07:33;;;;;;;42.35;19.20;;;8.00;99.90;;;;;;6143584;23;20021;-84
2021/03/24 08:10:26;;;;;;;48.92;21.42;;;8.20;99.90;;;;;;6188946;23;20064;-84
2021/03/24 08:13:30;;;;;;;47.17;20.65;;;8.40;99.90;;;;;;6164346;23;20052;-85
2021/03/24 08:16:13;;;;;;;41.35;18.23;;;8.50;99.90;;;;;;6143284;23;20031;-84
2021/03/24 08:19:07;;;;;;;40.05;17.48;;;8.50;99.90;;;;;;6151035;23;20029;-83
2021/03/24 08:25:07;;;;;;;43.70;19.63;;;8.50;99.90;;;;;;6087595;23;20021;-79
2021/03/24 08:28:11;;;;;;;;;;;;;;;;;;;;;
2021/03/24 08:30:56;;;;;;;46.72;18.52;;;8.70;99.90;;;;;;6161937;23;20013;-83
2021/03/24 08:34:10;;;;;;;48.00;20.65;;;8.40;99.90;;;;;;6185356;23;20005;-84
2021/03/24 08:37:13;;;;;;;47.08;21.95;;;8.10;99.90;;;;;;6140434;23;19997;-83
2021/03/24 08:40:20;;;;;;;46.35;21.02;;;8.00;99.90;;;;;;6186315;23;20027;-83
2021/03/24 08:43:34;;;;;;;46.75;18.65;;;8.00;99.90;;;;;;6161593;23;20111;-83
2021/03/24 08:46:36;;;;;;;42.97;18.88;;;8.00;99.90;;;;;;6176464;23;20001;-83
2021/03/24 08:56:23;;;;;;;41.20;18.30;;;8.10;99.90;;;;;;6208619;23;20017;-82
2021/03/24 08:59:04;;;;;;;48.53;19.80;;;8.20;99.90;;;;;;6162274;23;20069;-82
2021/03/24 09:02:13;;;;;;;54.53;21.83;;;8.10;99.90;;;;;;6185421;23;20031;-82
2021/03/24 09:05:08;;;;;;;39.25;17.10;;;8.00;99.90;;;;;;6160351;23;20025;-82
2021/03/24 09:08:02;;;;;;;41.13;16.35;;;8.10;99.90;;;;;;6184736;23;20446;-81
2021/03/24 09:10:46;;;;;;;42.22;18.88;;;8.00;99.90;;;;;;6209089;23;20043;-82
2021/03/24 09:13:27;;;;;;;44.97;19.30;;;8.10;99.90;;;;;;6179933;23;20024;-82
2021/03/24 09:16:40;;;;;;;46.45;20.63;;;8.20;99.90;;;;;;6179846;23;20017;-81
2021/03/24 09:23:04;;;;;;;;;;;;;;;;;;;;;
2021/03/24 09:25:54;;;;;;;43.08;20.48;;;8.60;99.90;;;;;;6178983;23;20017;-81
2021/03/24 09:29:06;;;;;;;51.35;22.50;;;8.80;99.90;;;;;;6177239;23;20024;-81
2021/03/24 09:32:00;;;;;;;51.28;22.45;;;9.00;99.90;;;;;;6158590;23;20028;-82
2021/03/24 09:37:34;;;;;;;56.00;24.25;;;9.10;99.90;;;;;;6208364;23;20010;-83
2021/03/24 09:40:08;;;;;;;50.35;24.70;;;9.20;99.90;;;;;;6187968;23;20069;-83
2021/03/24 09:42:52;;;;;;;46.72;23.65;;;9.40;99.90;;;;;;6138646;23;20064;-82
2021/03/24 09:45:23;;;;;;;49.95;23.25;;;9.70;99.90;;;;;;6162298;23;20068;-83
2021/03/24 09:51:26;;;;;;;49.65;23.63;;;10.40;99.70;;;;;;6194524;23;20012;-84
2021/03/24 09:54:25;;;;;;;;;;;;;;;;;;;;;
2021/03/24 09:57:05;;;;;;;47.42;24.05;;;10.90;96.50;;;;;;6177684;23;20801;-80
2021/03/24 10:12:04;;;;;;;49.95;24.70;;;13.80;82.50;;;;;;6208900;23;20033;-85
2021/03/24 10:14:41;;;;;;;51.45;25.52;;;14.60;74.90;;;;;;6189032;23;20057;-85
2021/03/24 10:23:37;;;;;;;49.78;25.20;;;13.40;77.50;;;;;;6154460;23;20012;-82
2021/03/24 10:26:13;;;;;;;45.92;26.00;;;13.40;76.70;;;;;;6176135;23;20026;-89
2021/03/24 10:28:49;;;;;;;48.40;26.30;;;13.80;74.90;;;;;;6155676;23;20073;-86
2021/03/24 10:49:50;;;;;;;48.97;25.13;;;13.50;76.30;;;;;;6186896;23;20029;-89
2021/03/24 10:52:22;;;;;;;50.63;25.80;;;14.50;70.70;;;;;;6171541;23;20005;-86
2021/03/24 11:00:39;;;;;;;49.28;26.05;;;13.90;70.20;;;;;;6185471;23;20032;-84
2021/03/24 11:03:20;;;;;;;47.05;26.17;;;14.00;69.80;;;;;;6161354;23;20029;-87
2021/03/24 11:17:38;;;;;;;51.63;25.05;;;15.00;64.30;;;;;;6188744;23;20039;-87
2021/03/24 11:20:11;;;;;;;47.03;26.02;;;16.50;60.60;;;;;;6162857;23;20176;-91
2021/03/24 11:31:38;;;;;;;45.22;24.42;;;16.10;58.50;;;;;;6164007;23;20320;-91
2021/03/24 11:34:11;;;;;;;51.63;25.83;;;17.10;57.70;;;;;;6159899;23;20021;-87
2021/03/24 11:36:42;;;;;;;45.42;25.95;;;19.10;52.70;;;;;;6183641;23;20270;-86
2021/03/24 11:39:19;;;;;;;45.25;26.25;;;20.10;49.10;;;;;;6160851;23;20043;-86
2021/03/24 11:41:48;;;;;;;44.47;26.20;;;19.60;49.50;;;;;;6161482;23;20036;-87
2021/03/24 11:44:21;;;;;;;46.42;26.50;;;19.70;48.50;;;;;;6171952;23;20039;-92
2021/03/24 11:47:02;;;;;;;43.38;23.73;;;19.40;49.20;;;;;;6164166;23;20013;-86
2021/03/24 11:49:44;;;;;;;47.55;26.45;;;19.70;49.70;;;;;;6186113;23;20017;-83
2021/03/24 11:52:43;;;;;;;44.67;26.83;;;21.10;46.90;;;;;;6137674;23;20017;-87
2021/03/24 11:55:46;;;;;;;48.08;27.70;;;22.20;44.00;;;;;;6161586;23;20035;-85
2021/03/24 11:58:27;;;;;;;47.40;27.83;;;21.70;43.90;;;;;;6163241;23;20047;-87
2021/03/24 12:01:10;;;;;;;50.13;27.90;;;21.10;44.40;;;;;;6168591;23;20017;-91
2021/03/24 12:03:56;;;;;;;48.67;28.15;;;19.20;48.40;;;;;;6165152;23;20021;-91
2021/03/24 12:06:40;;;;;;;45.35;27.00;;;19.50;47.20;;;;;;6163776;23;20016;-89
2021/03/24 12:09:12;;;;;;;45.15;26.90;;;19.70;46.70;;;;;;6163582;23;20035;-88
2021/03/24 12:11:40;;;;;;;48.92;25.92;;;20.60;45.70;;;;;;6137566;23;20031;-85
2021/03/24 12:14:17;;;;;;;46.58;26.33;;;21.40;44.60;;;;;;6161328;23;20025;-86
2021/03/24 12:16:50;;;;;;;41.92;24.63;;;22.20;42.50;;;;;;6185210;23;20036;-87
2021/03/24 12:19:31;;;;;;;38.05;26.15;;;22.60;41.90;;;;;;6161127;23;20345;-86
2021/03/24 12:22:02;;;;;;;39.50;23.98;;;22.70;41.30;;;;;;6161159;23;20047;-85
2021/03/24 12:24:38;;;;;;;38.72;25.85;;;22.90;41.00;;;;;;6160825;23;20041;-85
2021/03/24 12:27:14;;;;;;;43.22;27.08;;;23.70;39.30;;;;;;6162967;23;20024;-96
2021/03/24 12:29:44;;;;;;;38.03;25.13;;;22.50;40.60;;;;;;6145077;23;20042;-94
2021/03/24 12:32:24;;;;;;;49.13;28.10;;;22.40;40.80;;;;;;6194436;23;20039;-93
2021/03/24 12:34:54;;;;;;;46.40;26.08;;;23.00;40.00;;;;;;6169986;23;20029;-92
2021/03/24 12:37:30;;;;;;;48.60;25.45;;;20.50;42.80;;;;;;6168003;23;20017;-94
2021/03/24 12:40:08;;;;;;;45.22;27.80;;;20.50;44.70;;;;;;6143978;23;20025;-91
2021/03/24 12:42:36;;;;;;;51.97;31.38;;;21.00;42.80;;;;;;6192685;23;20021;-90
2021/03/24 12:45:27;;;;;;;43.53;26.45;;;21.00;42.90;;;;;;6168539;23;20017;-92
2021/03/24 12:48:04;;;;;;;47.28;28.35;;;21.70;41.90;;;;;;6190044;23;20429;-89
2021/03/24 12:50:34;;;;;;;49.42;29.02;;;21.70;41.90;;;;;;6165387;23;20040;-90
2021/03/24 12:53:14;;;;;;;43.67;27.20;;;22.50;41.20;;;;;;6170520;23;20024;-91
2021/03/24 12:55:43;;;;;;;39.83;25.83;;;23.90;38.70;;;;;;6163090;23;20317;-84
2021/03/24 12:58:35;;;;;;;40.03;25.55;;;24.60;37.50;;;;;;6158704;23;20017;-84
2021/03/24 13:01:19;;;;;;;41.35;25.67;;;25.30;35.90;;;;;;6158843;23;20017;-84
2021/03/24 13:04:31;;;;;;;40.97;25.63;;;24.50;36.80;;;;;;6159380;23;20017;-89
2021/03/24 13:07:27;;;;;;;43.97;25.65;;;22.10;38.80;;;;;;6186295;23;20424;-89
2021/03/24 13:10:21;;;;;;;41.35;25.10;;;21.30;41.00;;;;;;6160250;23;20021;-84
2021/03/24 13:12:56;;;;;;;41.45;25.65;;;22.00;40.00;;;;;;6183703;23;20320;-84
2021/03/24 13:15:30;;;;;;;45.33;25.65;;;22.20;39.40;;;;;;6159092;23;20309;-85
2021/03/24 13:18:17;;;;;;;39.03;25.30;;;22.60;39.50;;;;;;6179429;23;20023;-84
2021/03/24 13:21:23;;;;;;;50.92;24.35;;;23.10;38.80;;;;;;6183828;23;20025;-83
2021/03/24 13:24:07;;;;;;;42.03;26.67;;;24.10;37.50;;;;;;6165759;23;20025;-84
2021/03/24 13:26:37;;;;;;;39.47;24.63;;;23.70;36.60;;;;;;6159518;23;20017;-86
2021/03/24 13:29:11;;;;;;;45.58;25.23;;;22.30;38.00;;;;;;6163615;23;20021;-86
2021/03/24 13:31:53;;;;;;;44.75;25.48;;;20.50;40.90;;;;;;6168857;23;20036;-88
2021/03/24 13:34:43;;;;;;;46.33;25.83;;;19.80;42.30;;;;;;6193718;23;20027;-87
2021/03/24 13:37:15;;;;;;;41.28;25.13;;;20.80;41.40;;;;;;6135073;23;20016;-85
2021/03/24 13:39:49;;;;;;;44.30;24.55;;;21.80;40.10;;;;;;6134962;23;20035;-87
2021/03/24 13:42:28;;;;;;;43.08;23.02;;;23.10;38.00;;;;;;6159971;23;20608;-86
2021/03/24 13:45:03;;;;;;;39.85;24.63;;;24.30;36.90;;;;;;6162433;23;20025;-90
2021/03/24 13:47:38;;;;;;;42.22;25.00;;;22.10;38.20;;;;;;6171418;23;20021;-90
2021/03/24 13:56:10;;;;;;;44.65;23.20;;;18.40;45.10;;;;;;6184450;23;20028;-91
2021/03/24 13:59:20;;;;;;;42.75;23.40;;;19.30;44.50;;;;;;6184808;23;20040;-87
2021/03/24 14:02:14;;;;;;;37.08;22.08;;;20.90;42.00;;;;;;6163417;23;20440;-88
2021/03/24 14:07:37;;;;;;;39.15;21.08;;;19.10;43.50;;;;;;6189597;23;20039;-85
2021/03/24 14:10:12;;;;;;;41.92;23.73;;;19.40;42.90;;;;;;6164880;23;20032;-88
2021/03/24 14:13:19;;;;;;;39.78;23.85;;;19.40;43.10;;;;;;6163477;23;20044;-88
2021/03/24 14:15:55;;;;;;;44.65;24.30;;;20.70;42.00;;;;;;6162446;23;20039;-87
2021/03/24 14:18:40;;;;;;;42.38;23.13;;;20.10;42.40;;;;;;6156999;23;20005;31
2021/03/24 14:21:15;;;;;;;44.55;24.23;;;18.70;45.00;;;;;;6183096;23;20127;-91
2021/03/24 14:24:03;;;;;;;36.63;21.58;;;19.40;44.70;;;;;;6147929;23;20405;-86
2021/03/24 14:26:33;;;;;;;;;;;21.20;42.20;;;;;;6145838;23;20043;-88
2021/03/24 14:29:13;;;;;;;43.95;24.63;;;20.00;42.30;;;;;;6187575;23;19944;-84
2021/03/24 14:31:54;;;;;;;46.67;23.75;;;18.40;45.60;;;;;;6159448;23;20104;-89
2021/03/24 14:34:29;;;;;;;46.28;24.85;;;18.60;45.60;;;;;;6189516;23;20017;-89
2021/03/24 14:36:58;;;;;;;40.47;23.15;;;19.60;43.80;;;;;;6172377;23;20021;-90
2021/03/24 14:39:32;;;;;;;42.13;22.38;;;19.80;43.50;;;;;;6191167;23;20035;-85
2021/03/24 14:42:14;;;;;;;40.92;24.00;;;21.40;41.90;;;;;;6161034;23;20017;-84
2021/03/24 14:45:14;;;;;;;44.00;24.10;;;22.70;40.10;;;;;;6161643;23;20365;-89
2021/03/24 14:47:58;;;;;;;46.50;24.30;;;21.50;40.30;;;;;;6162828;23;20021;-91
2021/03/24 14:50:36;;;;;;;44.15;24.65;;;21.40;40.80;;;;;;6160835;23;20017;-87
2021/03/24 14:53:26;;;;;;;45.85;24.52;;;21.70;40.50;;;;;;6160248;23;20025;-87
2021/03/24 14:55:58;;;;;;;43.35;24.83;;;21.80;40.50;;;;;;6161253;23;20021;-86
2021/03/24 15:04:49;;;;;;;41.88;20.42;;;18.00;46.50;;;;;;6210107;23;20031;-85
2021/03/24 15:07:33;;;;;;;41.95;23.10;;;17.30;47.50;;;;;;6190952;23;20025;-90
2021/03/24 15:10:18;;;;;;;48.20;23.95;;;18.10;47.20;;;;;;6135414;23;20028;-90
2021/03/24 15:12:53;;;;;;;44.92;25.42;;;18.80;45.80;;;;;;6165445;23;20032;-86
2021/03/24 15:18:22;;;;;;;45.80;25.90;;;18.30;45.90;;;;;;6195527;23;20031;-88
2021/03/24 15:21:07;;;;;;;43.40;24.00;;;18.50;46.30;;;;;;6164225;23;20293;-92
2021/03/24 15:23:54;;;;;;;47.40;24.75;;;19.10;45.30;;;;;;6164744;23;20029;-91
2021/03/24 15:26:46;;;;;;;39.70;23.15;;;19.40;44.50;;;;;;6165753;23;20325;-87
2021/03/24 15:29:27;;;;;;;46.92;24.23;;;18.60;44.80;;;;;;6137897;23;20417;-90
2021/03/24 15:32:06;;;;;;;41.30;23.50;;;19.20;44.90;;;;;;6161795;23;20021;-86
2021/03/24 15:35:01;;;;;;;44.58;23.42;;;19.90;43.30;;;;;;6186575;23;20017;-88
2021/03/24 15:38:01;;;;;;;43.92;23.30;;;20.00;43.90;;;;;;6162815;23;20033;-89
2021/03/24 15:40:42;;;;;;;44.33;23.58;;;19.60;43.70;;;;;;6159294;23;20040;-91
2021/03/24 15:52:28;;;;;;;48.90;24.92;;;16.70;49.30;;;;;;6185275;23;20028;-88
2021/03/24 15:55:28;;;;;;;43.85;22.95;;;16.40;50.30;;;;;;6162844;23;20523;-89
2021/03/24 15:58:07;;;;;;;42.92;22.30;;;16.30;50.00;;;;;;6161124;23;20025;-90
2021/03/24 16:01:00;;;;;;;38.17;21.00;;;16.20;49.50;;;;;;6160383;23;20568;-87
2021/03/24 16:03:53;;;;;;;41.95;23.20;;;16.10;50.00;;;;;;6162043;23;20017;-88
2021/03/24 16:06:27;;;;;;;38.70;22.17;;;16.30;50.10;;;;;;6156005;23;20021;-91
2021/03/24 16:09:10;;;;;;;42.30;23.20;;;16.10;50.70;;;;;;6188673;23;20017;-89
2021/03/24 16:12:14;;;;;;;45.83;23.30;;;16.00;51.40;;;;;;6137757;23;20021;-90
2021/03/24 16:14:53;;;;;;;40.97;21.92;;;15.90;51.80;;;;;;6162674;23;20029;-90
2021/03/24 16:17:33;;;;;;;43.78;22.58;;;15.60;52.00;;;;;;6137827;23;20021;-92
2021/03/24 16:20:08;;;;;;;39.95;22.65;;;15.60;51.80;;;;;;6163471;23;20025;-91
2021/03/24 16:23:09;;;;;;;47.03;23.38;;;15.50;52.00;;;;;;6140143;23;20017;-89
2021/03/24 16:25:45;;;;;;;37.05;20.13;;;15.40;52.10;;;;;;6121571;23;20321;-87
2021/03/24 16:28:24;;;;;;;43.35;22.55;;;15.30;52.20;;;;;;6177144;23;20015;-87
2021/03/24 16:30:55;;;;;;;40.60;19.88;;;15.20;52.80;;;;;;6174100;23;20017;-89
2021/03/24 16:39:49;;;;;;;42.28;21.98;;;14.80;53.30;;;;;;6200155;23;20053;-91
2021/03/24 16:42:49;;;;;;;41.97;21.77;;;14.70;53.60;;;;;;6166546;23;20021;-93
2021/03/24 16:45:44;;;;;;;45.50;22.85;;;14.70;53.60;;;;;;6164273;23;20021;-90
2021/03/24 16:49:07;;;;;;;48.72;25.45;;;14.70;54.10;;;;;;6182052;23;20029;-92
2021/03/24 16:52:09;;;;;;;69.45;38.42;;;14.50;54.00;;;;;;6074944;23;20033;-94
2021/03/24 16:54:56;;;;;;;43.75;21.63;;;14.50;54.80;;;;;;6075639;23;20128;-93
2021/03/24 16:57:39;;;;;;;45.75;22.90;;;14.60;54.30;;;;;;6151474;23;20385;-94
2021/03/24 17:00:35;;;;;;;41.92;20.88;;;14.50;54.50;;;;;;6167595;23;20076;-91
2021/03/24 17:03:10;;;;;;;41.90;21.10;;;14.50;54.60;;;;;;6185742;23;20076;-90
2021/03/24 17:17:10;;;;;;;40.63;19.33;;;14.00;56.10;;;;;;6178568;23;20021;-90
2021/03/24 17:19:46;;;;;;;41.35;20.67;;;14.00;57.00;;;;;;6187510;23;20005;-86
2021/03/24 17:25:30;;;;;;;40.28;20.67;;;13.90;57.00;;;;;;6190982;23;20015;-87
2021/03/24 17:28:21;;;;;;;43.67;19.50;;;13.80;57.30;;;;;;6188514;23;20096;-86
2021/03/24 17:31:25;;;;;;;37.80;19.30;;;13.70;57.40;;;;;;6160532;23;20061;-85
2021/03/24 17:34:25;;;;;;;48.88;22.88;;;13.70;57.90;;;;;;6177563;23;20009;-85